Time;durP1;ratioP1;P1;durP2;ratioP2;P2;SDS_P1;SDS_P2;PMS_P1;PMS_P2;Temp;Humidity;BMP_temperature;BMP_pressure;BME280_temperature;BME280_humidity;BME280_pressure;Samples;Min_cycle;Max_cycle;Signal;HPM_P1;HPM_P2
2023/01/02 00:02:22;;;;;;;4.53;4.07;;;14.10;99.90;;;;;;2613435;54;20147;-71
2023/01/02 00:08:09;;;;;;;11.43;4.73;;;14.30;99.90;;;;;;2613751;54;20162;-70
2023/01/02 00:13:57;;;;;;;8.53;4.50;;;14.10;99.90;;;;;;2613265;54;20147;-70
2023/01/02 00:19:48;;;;;;;8.40;5.33;;;14.20;99.90;;;;;;2613876;54;20183;-71
2023/01/02 00:25:35;;;;;;;9.10;3.97;;;14.20;99.90;;;;;;2613295;54;20394;-70
2023/01/02 00:35:30;;;;;;;7.07;4.10;;;14.30;99.90;;;;;;2613484;54;20423;-69
2023/01/02 00:41:17;;;;;;;11.00;4.43;;;14.40;99.90;;;;;;2613793;54;20442;-69
2023/01/02 00:47:05;;;;;;;10.13;4.40;;;14.50;99.90;;;;;;2613527;54;20122;-69
2023/01/02 00:52:53;;;;;;;7.90;3.80;;;14.50;99.90;;;;;;2613675;54;20127;-68
2023/01/02 00:58:41;;;;;;;7.63;4.10;;;14.50;99.90;;;;;;2614988;54;20186;-70
2023/01/02 01:04:32;;;;;;;5.50;3.27;;;14.40;99.90;;;;;;2613945;39;20530;-70
2023/01/02 01:10:19;;;;;;;5.13;3.13;;;14.40;99.90;;;;;;2613722;46;20399;-71
2023/01/02 01:16:13;;;;;;;7.00;3.50;;;14.30;99.90;;;;;;2615068;39;20765;-70
2023/01/02 01:22:01;;;;;;;10.03;4.37;;;14.10;99.90;;;;;;2612956;54;20519;-70
2023/01/02 01:27:52;;;;;;;11.73;4.90;;;13.60;99.90;;;;;;2614453;54;20155;-70
2023/01/02 01:30:59;;;;;;;9.80;4.30;;;13.50;99.90;;;;;;2613995;39;20818;-70
2023/01/02 01:33:25;;;;;;;7.70;5.07;;;13.50;99.90;;;;;;2613774;54;20407;-71
2023/01/02 01:39:12;;;;;;;11.67;5.07;;;13.30;99.90;;;;;;2614376;54;20147;-72
2023/01/02 01:45:01;;;;;;;6.83;4.03;;;13.10;99.90;;;;;;2614580;39;20634;-70
2023/01/02 01:50:48;;;;;;;10.17;6.30;;;13.00;99.90;;;;;;2614204;54;20403;-70
2023/01/02 01:56:40;;;;;;;11.27;4.50;;;12.90;99.90;;;;;;2613330;54;20656;-70
2023/01/02 02:02:30;;;;;;;6.10;4.00;;;13.00;99.90;;;;;;2614837;54;20516;-71
2023/01/02 02:14:35;;;;;;;10.83;4.80;;;13.00;99.90;;;;;;2615457;39;20703;-71
2023/01/02 02:31:18;;;;;;;10.07;4.20;;;13.20;99.90;;;;;;2613245;54;20526;-71
2023/01/02 02:43:37;;;;;;;6.73;4.57;;;13.20;99.90;;;;;;2613257;54;20465;-70
2023/01/02 02:56:08;;;;;;;8.17;3.33;;;12.80;99.90;;;;;;2613192;54;20394;-71
2023/01/02 03:01:55;;;;;;;11.40;4.20;;;12.40;99.90;;;;;;2612603;54;20949;-70
2023/01/02 03:07:52;;;;;;;9.57;6.37;;;12.40;99.90;;;;;;2614141;54;20126;-73
2023/01/02 03:26:29;;;;;;;6.20;3.80;;;12.30;99.90;;;;;;2614817;54;20391;-70
2023/01/02 03:32:26;;;;;;;8.10;4.40;;;12.10;99.90;;;;;;2614336;54;20446;-71
2023/01/02 03:51:19;;;;;;;8.20;4.17;;;11.90;99.90;;;;;;2612902;54;21026;-72
2023/01/02 04:09:36;;;;;;;16.77;4.87;;;11.80;99.90;;;;;;2612935;54;20387;-70
2023/01/02 04:15:27;;;;;;;7.27;4.80;;;11.70;99.90;;;;;;2614157;39;20798;-71
2023/01/02 04:21:20;;;;;;;9.73;5.20;;;11.80;99.90;;;;;;2614476;54;20427;-71
2023/01/02 04:27:17;;;;;;;9.53;4.73;;;11.70;99.90;;;;;;2615429;39;20995;-70
2023/01/02 04:36:27;;;;;;;8.23;4.70;;;11.90;99.90;;;;;;2614530;54;20386;-70
2023/01/02 04:42:14;;;;;;;11.80;5.73;;;11.90;99.90;;;;;;2614381;54;20267;-71
2023/01/02 04:48:02;;;;;;;10.77;5.17;;;11.90;99.90;;;;;;2615313;54;20142;-70
2023/01/02 04:53:50;;;;;;;12.03;5.20;;;12.00;99.90;;;;;;2615442;54;20122;-69
2023/01/02 04:59:38;;;;;;;12.67;5.67;;;11.80;99.90;;;;;;2616020;54;20418;-69
2023/01/02 05:05:26;;;;;;;5.90;3.93;;;12.00;99.90;;;;;;2616611;31;20632;-71
2023/01/02 05:11:18;;;;;;;11.03;4.93;;;12.30;99.90;;;;;;2615769;54;20133;-70
2023/01/02 05:17:06;;;;;;;9.70;4.30;;;12.40;99.90;;;;;;2616141;54;20415;-71
2023/01/02 05:29:00;;;;;;;12.63;4.67;;;12.60;99.90;;;;;;2615624;54;20937;-69
2023/01/02 05:31:44;;;;;;;9.10;3.60;;;12.70;99.90;;;;;;2614973;54;20442;-70
2023/01/02 05:34:13;;;;;;;9.37;4.27;;;12.70;99.90;;;;;;2615460;54;20408;-71
2023/01/02 05:40:01;;;;;;;7.60;5.43;;;12.70;99.90;;;;;;2615300;54;20351;-70
2023/01/02 05:45:49;;;;;;;13.37;4.83;;;12.70;99.90;;;;;;2615433;54;20131;-70
2023/01/02 05:51:36;;;;;;;7.97;4.10;;;12.80;99.90;;;;;;2614579;54;20612;-70
2023/01/02 05:57:24;;;;;;;8.07;5.60;;;12.90;99.90;;;;;;2615346;54;20202;-71
2023/01/02 06:03:12;;;;;;;11.30;4.73;;;12.90;99.90;;;;;;2615703;54;20146;-70
2023/01/02 06:09:01;;;;;;;11.93;4.20;;;13.10;99.90;;;;;;2616223;54;20114;-69
2023/01/02 06:14:48;;;;;;;8.13;4.20;;;12.80;99.90;;;;;;2616274;54;20440;-70
2023/01/02 06:20:35;;;;;;;5.37;3.27;;;12.70;99.90;;;;;;2615338;54;20159;-71
2023/01/02 06:26:25;;;;;;;10.60;4.47;;;12.50;99.90;;;;;;2615609;54;20134;-70
2023/01/02 06:36:16;;;;;;;7.03;3.70;;;12.70;99.90;;;;;;2615587;54;20406;-69
2023/01/02 06:42:03;;;;;;;5.90;3.77;;;12.60;99.90;;;;;;2615469;54;20388;-70
2023/01/02 06:47:59;;;;;;;5.40;3.33;;;12.70;99.90;;;;;;2616619;39;20493;-69
2023/01/02 06:53:47;;;;;;;6.23;3.53;;;12.60;99.90;;;;;;2615782;54;20420;-69
2023/01/02 06:59:34;;;;;;;4.43;2.50;;;12.60;99.90;;;;;;2615894;54;20415;-70
2023/01/02 07:05:22;;;;;;;4.93;3.00;;;12.60;99.90;;;;;;2615752;54;20118;-69
2023/01/02 07:17:35;;;;;;;5.40;2.97;;;12.50;99.90;;;;;;2615644;54;20969;-69
2023/01/02 07:23:23;;;;;;;7.57;3.03;;;12.50;99.90;;;;;;2615747;54;20121;-73
2023/01/02 07:29:10;;;;;;;10.03;3.10;;;12.60;99.90;;;;;;2612074;54;20134;-69
2023/01/02 07:31:44;;;;;;;4.23;2.70;;;12.60;99.90;;;;;;2613610;54;20411;-69
2023/01/02 07:34:10;;;;;;;6.10;3.30;;;12.60;99.90;;;;;;2615088;54;20202;-69
2023/01/02 07:39:57;;;;;;;6.40;2.47;;;12.70;99.90;;;;;;2614570;54;20138;-69
2023/01/02 07:45:45;;;;;;;8.43;3.50;;;12.60;99.90;;;;;;2614187;54;20135;-69
2023/01/02 07:51:32;;;;;;;7.10;3.00;;;12.50;99.90;;;;;;2612882;54;20198;-69
2023/01/02 07:57:20;;;;;;;5.90;3.30;;;12.50;99.90;;;;;;2614824;39;20620;-69
2023/01/02 08:03:08;;;;;;;7.00;2.80;;;12.50;99.90;;;;;;2613925;54;20134;-70
2023/01/02 08:09:12;;;;;;;7.77;3.10;;;12.50;99.90;;;;;;2609700;54;20143;-70
2023/01/02 08:14:59;;;;;;;5.90;2.87;;;12.30;99.90;;;;;;2611310;54;20153;-69
2023/01/02 08:20:46;;;;;;;5.07;2.60;;;12.30;99.90;;;;;;2611788;54;20134;-69
2023/01/02 08:26:33;;;;;;;8.77;3.90;;;12.20;99.90;;;;;;2609814;54;20122;-69
2023/01/02 08:36:17;;;;;;;5.60;2.57;;;12.10;99.90;;;;;;2610730;54;20398;-70
2023/01/02 08:42:04;;;;;;;4.93;2.87;;;12.10;99.90;;;;;;2612368;39;20830;-68
2023/01/02 08:47:52;;;;;;;6.60;3.03;;;12.00;99.90;;;;;;2611221;54;20138;-70
2023/01/02 08:53:39;;;;;;;8.60;3.87;;;11.90;99.90;;;;;;2612980;54;20154;-70
2023/01/02 08:59:27;;;;;;;5.73;2.97;;;11.70;99.90;;;;;;2613572;54;20115;-72
2023/01/02 09:05:15;;;;;;;4.40;2.40;;;11.50;99.90;;;;;;2613772;54;20186;-71
2023/01/02 09:11:14;;;;;;;4.60;2.40;;;11.00;99.90;;;;;;2612502;54;20163;-70
2023/01/02 09:17:02;;;;;;;5.97;2.20;;;10.80;99.90;;;;;;2612564;54;20391;-71
2023/01/02 09:22:49;;;;;;;3.70;1.80;;;10.90;99.90;;;;;;2614365;54;20471;-69
2023/01/02 09:25:15;;;;;;;3.87;1.90;;;10.90;99.90;;;;;;2613296;54;20419;-71
2023/01/02 09:27:40;;;;;;;4.30;2.30;;;10.90;99.90;;;;;;2614257;54;20226;-70
2023/01/02 09:36:50;;;;;;;4.27;2.57;;;10.90;99.90;;;;;;2613803;54;20482;-70
2023/01/02 09:39:16;;;;;;;5.00;2.37;;;10.80;99.90;;;;;;2612200;47;20415;-69
2023/01/02 09:41:48;;;;;;;3.80;2.20;;;10.80;99.90;;;;;;2613600;54;20266;-70
2023/01/02 09:47:39;;;;;;;4.00;2.80;;;10.80;99.90;;;;;;2614255;54;20387;-68
2023/01/02 09:50:42;;;;;;;3.73;2.83;;;10.80;99.90;;;;;;2613486;54;20407;-73
2023/01/02 09:53:10;;;;;;;3.40;2.40;;;10.70;99.90;;;;;;2613468;54;20425;-69
2023/01/02 10:05:38;;;;;;;3.90;2.30;;;10.60;99.90;;;;;;2614203;54;20442;-69
2023/01/02 10:18:27;;;;;;;4.43;1.90;;;10.50;99.90;;;;;;2611754;54;20523;-70
2023/01/02 10:21:53;;;;;;;3.73;2.10;;;10.50;99.90;;;;;;2611405;39;20877;-69
2023/01/02 10:27:52;;;;;;;8.40;3.10;;;10.40;99.90;;;;;;2612939;54;20383;-70
2023/01/02 10:37:01;;;;;;;3.93;3.20;;;10.40;99.90;;;;;;2613417;39;20986;-69
2023/01/02 10:42:52;;;;;;;5.70;4.00;;;10.40;99.90;;;;;;2613281;54;20395;-69
2023/01/02 10:48:42;;;;;;;5.90;3.70;;;10.40;99.90;;;;;;2613861;54;20386;-68
2023/01/02 10:54:29;;;;;;;5.30;4.40;;;10.40;99.90;;;;;;2614886;54;20480;-71
2023/01/02 11:00:17;;;;;;;7.20;4.80;;;10.60;99.90;;;;;;2614961;54;20658;-69
2023/01/02 11:02:50;;;;;;;10.10;4.97;;;10.60;99.90;;;;;;2612925;54;20416;-69
2023/01/02 11:05:24;;;;;;;8.07;5.37;;;10.50;99.90;;;;;;2614686;46;20166;-70
2023/01/02 11:11:14;;;;;;;7.87;5.97;;;10.50;99.90;;;;;;2614868;54;20383;-70
2023/01/02 11:23:43;;;;;;;9.60;6.33;;;10.70;99.90;;;;;;2614933;54;20374;-71
2023/01/02 11:29:34;;;;;;;12.80;7.60;;;10.70;99.90;;;;;;2614116;54;20379;-70
2023/01/02 11:35:35;;;;;;;14.33;8.57;;;10.80;99.90;;;;;;2611702;54;20399;-70
2023/01/02 11:47:46;;;;;;;11.93;9.20;;;10.80;99.90;;;;;;2612745;39;20898;-73
2023/01/02 11:53:40;;;;;;;11.97;9.10;;;10.70;99.90;;;;;;2615322;54;20383;-70
2023/01/02 12:19:32;;;;;;;14.90;11.03;;;11.30;99.90;;;;;;2611342;54;20390;-70
2023/01/02 12:25:37;;;;;;;14.57;12.53;;;11.10;99.90;;;;;;2612479;54;20461;-71
2023/01/02 12:28:57;;;;;;;14.57;11.60;;;11.10;99.90;;;;;;2612509;54;20428;-70
2023/01/02 12:37:57;;;;;;;13.67;10.70;;;11.10;99.90;;;;;;2612497;39;20798;-70
2023/01/02 12:43:50;;;;;;;13.30;10.50;;;11.00;99.90;;;;;;2613309;54;20391;-71
2023/01/02 12:56:41;;;;;;;13.80;9.73;;;10.90;99.90;;;;;;2614828;54;20395;-71
2023/01/02 13:06:07;;;;;;;12.10;9.13;;;11.10;99.90;;;;;;2613565;54;21003;-69
2023/01/02 13:19:37;;;;;;;11.37;8.27;;;10.90;99.90;;;;;;2612248;54;20540;-70
2023/01/02 13:25:25;;;;;;;12.17;8.67;;;11.00;99.90;;;;;;2610202;54;20392;-73
2023/01/02 13:27:54;;;;;;;11.20;8.80;;;10.90;99.90;;;;;;2611461;54;20416;-70
2023/01/02 13:37:11;;;;;;;13.57;9.90;;;10.80;99.90;;;;;;2611301;54;20490;-69
2023/01/02 13:39:39;;;;;;;12.60;8.80;;;10.80;99.90;;;;;;2613527;54;20411;-69
2023/01/02 13:45:33;;;;;;;14.70;10.43;;;10.80;99.90;;;;;;2610465;54;20451;-70
2023/01/02 13:48:03;;;;;;;12.03;8.90;;;10.80;99.90;;;;;;2612234;54;20440;-70
2023/01/02 13:50:36;;;;;;;13.97;9.83;;;10.70;99.90;;;;;;2612896;54;20453;-69
2023/01/02 14:00:40;;;;;;;13.20;9.13;;;10.80;99.90;;;;;;2612784;54;20414;-71
2023/01/02 14:06:30;;;;;;;12.07;9.37;;;10.80;99.90;;;;;;2613696;54;20400;-70
2023/01/02 14:09:04;;;;;;;13.20;9.37;;;10.70;99.90;;;;;;2611864;54;20544;-69
2023/01/02 14:11:38;;;;;;;13.00;9.20;;;10.70;99.90;;;;;;2613464;54;20867;-69
2023/01/02 14:27:30;;;;;;;9.30;6.77;;;10.60;99.90;;;;;;2613460;54;20411;-69
2023/01/02 14:39:48;;;;;;;9.33;5.83;;;10.40;99.90;;;;;;2614207;54;20463;-71
2023/01/02 15:01:20;;;;;;;7.23;5.00;;;10.10;99.90;;;;;;2613180;46;20418;-70
2023/01/02 15:13:35;;;;;;;8.77;3.90;;;10.00;99.90;;;;;;2614631;54;20496;-69
2023/01/02 15:19:29;;;;;;;5.70;4.20;;;10.10;99.90;;;;;;2613663;54;20134;-70
2023/01/02 15:25:38;;;;;;;11.77;5.43;;;10.00;99.90;;;;;;2612757;54;20431;-69
2023/01/02 15:31:26;;;;;;;9.53;5.23;;;9.80;99.90;;;;;;2612706;54;20515;-71
2023/01/02 15:37:16;;;;;;;9.83;5.67;;;9.80;99.90;;;;;;2611658;54;20423;-68
2023/01/02 15:46:22;;;;;;;10.10;4.90;;;9.70;99.90;;;;;;2613668;39;20740;-71
2023/01/02 15:52:22;;;;;;;8.07;4.93;;;9.70;99.90;;;;;;2614355;39;20819;-71
2023/01/02 15:55:16;;;;;;;9.07;5.47;;;9.70;99.90;;;;;;2614597;54;20419;-69
2023/01/02 15:57:54;;;;;;;12.60;5.27;;;9.70;99.90;;;;;;2611876;54;20423;-71
2023/01/02 16:00:57;;;;;;;7.17;5.37;;;9.70;99.90;;;;;;2613324;54;20415;-70
2023/01/02 16:03:35;;;;;;;9.37;5.80;;;9.60;99.90;;;;;;2613596;54;20427;-69
2023/01/02 16:09:26;;;;;;;8.20;5.70;;;9.70;99.90;;;;;;2612613;54;20426;-70
2023/01/02 16:15:19;;;;;;;12.33;5.83;;;9.60;99.90;;;;;;2614969;54;20512;-72
2023/01/02 16:21:10;;;;;;;11.70;7.67;;;9.60;99.90;;;;;;2613141;54;20387;-69
2023/01/02 16:26:58;;;;;;;9.97;6.70;;;9.60;99.90;;;;;;2613725;54;20426;-71
2023/01/02 16:32:47;;;;;;;13.67;7.20;;;9.60;99.90;;;;;;2614213;39;20522;-70
2023/01/02 16:38:54;;;;;;;12.37;6.93;;;9.70;99.90;;;;;;2611910;54;20631;-70
2023/01/02 16:42:33;;;;;;;13.60;7.80;;;9.60;99.90;;;;;;2613623;54;20442;-70
2023/01/02 16:44:41;;;;;;;13.70;6.47;;;9.70;99.90;;;;;;2607196;54;21011;-70
2023/01/02 16:47:58;;;;;;;11.57;7.07;;;9.60;99.90;;;;;;2611065;54;20414;-70
2023/01/02 16:50:26;;;;;;;11.27;8.10;;;9.70;99.90;;;;;;2611388;47;20171;-69
2023/01/02 16:56:14;;;;;;;9.90;7.20;;;9.70;99.90;;;;;;2612710;54;20475;-69
2023/01/02 17:02:02;;;;;;;12.03;7.77;;;9.90;99.90;;;;;;2610581;54;20430;-69
2023/01/02 17:07:50;;;;;;;5.80;3.87;;;9.60;99.90;;;;;;2610522;54;20134;-71
2023/01/02 17:13:38;;;;;;;6.63;4.40;;;9.10;99.90;;;;;;2612932;54;20133;-70
2023/01/02 17:19:25;;;;;;;5.20;3.20;;;9.00;99.90;;;;;;2611593;54;20430;-72
2023/01/02 17:25:14;;;;;;;5.17;3.00;;;9.00;99.90;;;;;;2613978;54;20154;-69
2023/01/02 17:31:02;;;;;;;5.00;3.70;;;9.10;99.90;;;;;;2614623;54;21000;-70
2023/01/02 17:36:50;;;;;;;8.87;4.87;;;8.90;99.90;;;;;;2615086;54;20138;-69
2023/01/02 17:46:24;;;;;;;5.83;2.10;;;8.80;99.90;;;;;;2615075;54;20384;-70
2023/01/02 17:52:12;;;;;;;4.30;2.77;;;8.70;99.90;;;;;;2614844;54;20411;-71
2023/01/02 17:58:00;;;;;;;5.60;4.10;;;8.50;99.90;;;;;;2613252;54;20655;-70
2023/01/02 18:03:48;;;;;;;5.20;2.60;;;8.60;99.90;;;;;;2614742;47;20147;-71
2023/01/02 18:09:35;;;;;;;4.70;2.73;;;8.60;99.90;;;;;;2613977;54;20442;-70
2023/01/02 18:15:23;;;;;;;4.50;2.80;;;8.50;99.90;;;;;;2614743;54;20165;-70
2023/01/02 18:21:14;;;;;;;4.40;2.90;;;8.50;99.90;;;;;;2614354;39;20542;-69
2023/01/02 18:38:01;;;;;;;4.97;2.73;;;8.40;99.90;;;;;;2614585;54;20395;-71
2023/01/02 18:47:36;;;;;;;7.37;3.90;;;8.20;99.90;;;;;;2614606;54;20499;-72
2023/01/02 18:53:28;;;;;;;13.67;3.80;;;8.10;99.90;;;;;;2614366;39;20813;-70
2023/01/02 19:31:44;;;;;;;4.80;3.43;;;8.20;99.90;;;;;;2611917;54;21026;-70
2023/01/02 19:47:19;;;;;;;7.00;5.20;;;8.50;99.90;;;;;;2611538;54;20440;-70
2023/01/02 19:53:07;;;;;;;10.23;4.80;;;8.60;99.90;;;;;;2611381;54;20387;-70
2023/01/02 19:58:54;;;;;;;9.50;5.37;;;8.50;99.90;;;;;;2613528;54;20137;-72
2023/01/02 20:04:42;;;;;;;10.67;7.07;;;8.70;99.90;;;;;;2612607;54;20181;-69
2023/01/02 20:10:30;;;;;;;8.90;5.37;;;8.80;99.90;;;;;;2613805;54;20412;-70
2023/01/02 20:16:17;;;;;;;8.43;5.57;;;8.80;99.90;;;;;;2615052;54;20138;-69
2023/01/02 20:22:06;;;;;;;10.10;6.97;;;8.90;99.90;;;;;;2612765;54;20134;-69
2023/01/02 20:27:55;;;;;;;7.87;6.13;;;8.90;99.90;;;;;;2612832;54;20503;-69
2023/01/02 20:33:42;;;;;;;11.23;7.87;;;8.90;99.90;;;;;;2613411;54;20414;-69
2023/01/02 20:39:30;;;;;;;11.70;7.47;;;8.80;99.90;;;;;;2612015;54;20231;-70
2023/01/02 20:42:35;;;;;;;10.93;8.37;;;8.90;99.90;;;;;;2612359;39;20817;-70
2023/01/02 20:45:01;;;;;;;10.17;8.17;;;8.80;99.90;;;;;;2610718;54;20190;-69
2023/01/02 20:50:49;;;;;;;13.87;9.13;;;8.80;99.90;;;;;;2611194;54;20456;-71
2023/01/02 20:56:37;;;;;;;13.20;8.50;;;8.90;99.90;;;;;;2608622;54;20130;-71
2023/01/02 21:02:24;;;;;;;10.80;7.90;;;8.90;99.90;;;;;;2611631;54;20157;-71
2023/01/02 21:08:12;;;;;;;15.03;7.33;;;8.90;99.90;;;;;;2612203;54;20258;-69
2023/01/02 21:14:01;;;;;;;15.20;9.20;;;8.90;99.90;;;;;;2613835;54;20159;-69
2023/01/02 21:19:49;;;;;;;10.10;6.60;;;8.80;99.90;;;;;;2612790;54;20468;-70
2023/01/02 21:25:37;;;;;;;12.73;9.33;;;8.90;99.90;;;;;;2615016;54;20294;-71
2023/01/02 21:31:26;;;;;;;11.10;8.63;;;8.90;99.90;;;;;;2615197;54;20383;-70
2023/01/02 21:37:13;;;;;;;14.73;8.60;;;8.80;99.90;;;;;;2615121;54;20526;-70
2023/01/02 21:47:10;;;;;;;8.93;7.50;;;8.60;99.90;;;;;;2612592;54;20570;-70
2023/01/02 21:52:58;;;;;;;15.57;8.07;;;8.40;99.90;;;;;;2613187;54;20371;-70
2023/01/02 21:58:46;;;;;;;10.30;7.90;;;8.30;99.90;;;;;;2613513;54;20418;-70
2023/01/02 22:04:34;;;;;;;11.67;8.40;;;8.20;99.90;;;;;;2613916;54;20142;-70
2023/01/02 22:10:22;;;;;;;13.63;8.83;;;8.00;99.90;;;;;;2614385;54;20424;-70
2023/01/02 22:16:10;;;;;;;13.90;8.37;;;7.80;99.90;;;;;;2614380;54;20137;-70
2023/01/02 22:21:58;;;;;;;13.80;9.30;;;7.80;99.90;;;;;;2615384;39;20535;-69
2023/01/02 22:27:45;;;;;;;14.10;7.40;;;7.70;99.90;;;;;;2614608;54;20411;-69
2023/01/02 22:33:33;;;;;;;14.83;10.53;;;7.60;99.90;;;;;;2611900;54;20190;-70
2023/01/02 22:39:21;;;;;;;15.97;11.23;;;7.40;99.90;;;;;;2614935;54;20162;-71
2023/01/02 22:45:16;;;;;;;21.07;14.07;;;7.40;99.90;;;;;;2615441;54;20165;-68
2023/01/02 22:51:07;;;;;;;18.60;12.87;;;7.30;99.90;;;;;;2614272;54;20411;-70
2023/01/02 22:56:55;;;;;;;22.43;14.73;;;7.20;99.90;;;;;;2613900;54;20900;-71
2023/01/02 23:02:43;;;;;;;19.43;14.33;;;7.20;99.90;;;;;;2614289;54;20118;-71
2023/01/02 23:08:30;;;;;;;24.67;14.13;;;7.10;99.90;;;;;;2614427;31;20653;-69
2023/01/02 23:14:18;;;;;;;29.30;14.70;;;7.00;99.90;;;;;;2614473;54;20151;-70
2023/01/02 23:20:07;;;;;;;23.17;14.77;;;6.90;99.90;;;;;;2614340;54;20146;-69
2023/01/02 23:25:55;;;;;;;22.23;13.77;;;6.90;99.90;;;;;;2613604;54;20398;-71
2023/01/02 23:31:48;;;;;;;21.07;12.97;;;6.70;99.90;;;;;;2614937;54;20721;-71
2023/01/02 23:37:35;;;;;;;20.17;13.97;;;6.90;99.90;;;;;;2614071;54;20423;-70
2023/01/02 23:47:10;;;;;;;25.83;16.90;;;7.00;99.90;;;;;;2613595;54;20419;-69
2023/01/02 23:52:58;;;;;;;24.60;15.40;;;6.70;99.90;;;;;;2614242;54;20410;-70
2023/01/02 23:58:46;;;;;;;21.27;13.90;;;6.70;99.90;;;;;;2614696;54;20130;-69
